createdAt,value
2018-11-26T00:00:20.545Z,4.04
2018-11-26T00:01:20.559Z,4
2018-11-26T00:02:20.584Z,3.91
2018-11-26T00:03:35.255Z,3.8
2018-11-26T00:04:20.618Z,3.83
2018-11-26T00:05:20.625Z,3.86
2018-11-26T00:06:20.637Z,3.8
2018-11-26T00:07:20.644Z,3.78
2018-11-26T00:08:20.663Z,3.76
2018-11-26T00:09:20.672Z,3.76
2018-11-26T00:10:20.690Z,3.72
2018-11-26T00:11:35.364Z,3.79
2018-11-26T00:12:35.378Z,3.73
2018-11-26T00:13:20.736Z,3.72
2018-11-26T00:14:20.751Z,3.62
2018-11-26T00:15:20.515Z,3.65
2018-11-26T00:16:20.785Z,3.61
2018-11-26T00:17:20.792Z,3.54
2018-11-26T00:18:20.812Z,3.54
2018-11-26T00:19:20.822Z,3.52
2018-11-26T00:20:20.834Z,3.51
2018-11-26T00:21:20.850Z,3.5
2018-11-26T00:22:20.905Z,3.4
2018-11-26T00:24:20.890Z,3.5
2018-11-26T00:25:20.904Z,3.35
2018-11-26T00:26:20.919Z,3.29
2018-11-26T00:27:20.974Z,3.32
2018-11-26T00:28:35.605Z,3.29
2018-11-26T00:29:20.959Z,3.28
2018-11-26T00:30:20.985Z,3.24
2018-11-26T00:31:21.006Z,3.23
2018-11-26T00:32:21.003Z,3.17
2018-11-26T00:33:21.024Z,3.14
2018-11-26T00:34:21.030Z,3.18
2018-11-26T00:35:35.703Z,3.03
2018-11-26T00:36:21.060Z,3.2
2018-11-26T00:37:21.076Z,3.17
2018-11-26T00:38:21.083Z,3.06
2018-11-26T00:39:21.103Z,3.18
2018-11-26T00:40:21.120Z,3.17
2018-11-26T00:41:21.133Z,3.18
2018-11-26T00:42:21.140Z,3.05
2018-11-26T00:43:21.155Z,3
2018-11-26T00:44:21.179Z,2.95
2018-11-26T00:45:21.186Z,3.02
2018-11-26T00:46:21.198Z,3.05
2018-11-26T00:47:21.211Z,2.92
2018-11-26T00:48:21.227Z,3.05
2018-11-26T00:49:21.247Z,2.92
2018-11-26T00:50:21.253Z,2.9
2018-11-26T00:51:35.924Z,2.9
2018-11-26T00:55:21.327Z,2.89
2018-11-26T00:57:21.351Z,2.89
2018-11-26T00:58:21.361Z,2.79
2018-11-26T00:59:36.037Z,2.82
2018-11-26T01:00:21.389Z,2.84
2018-11-26T01:01:36.062Z,2.77
2018-11-26T01:02:21.421Z,2.77
2018-11-26T01:03:21.433Z,2.75
2018-11-26T01:04:21.453Z,2.75
2018-11-26T01:05:21.455Z,2.81
2018-11-26T01:06:21.471Z,2.71
2018-11-26T01:07:36.147Z,2.69
2018-11-26T01:08:21.520Z,2.69
2018-11-26T01:10:21.534Z,2.67
2018-11-26T01:11:21.541Z,2.67
2018-11-26T01:12:21.560Z,2.59
2018-11-26T01:13:21.574Z,2.74
2018-11-26T01:14:21.582Z,2.71
2018-11-26T01:15:21.598Z,2.63
2018-11-26T01:16:21.612Z,2.52
2018-11-26T01:17:21.649Z,2.54
2018-11-26T01:18:21.678Z,2.48
2018-11-26T01:19:21.652Z,2.53
2018-11-26T01:20:21.673Z,2.54
2018-11-26T01:21:21.679Z,2.52
2018-11-26T01:22:21.690Z,2.48
2018-11-26T01:23:36.364Z,2.49
2018-11-26T01:24:21.726Z,2.52
2018-11-26T01:25:21.738Z,2.49
2018-11-26T01:26:21.741Z,2.46
2018-11-26T01:27:21.758Z,2.45
2018-11-26T01:28:21.772Z,2.53
2018-11-26T01:29:21.789Z,2.49
2018-11-26T01:31:21.819Z,2.38
2018-11-26T01:32:21.827Z,2.35
2018-11-26T01:33:21.848Z,2.34
2018-11-26T01:35:21.867Z,2.41
2018-11-26T01:36:21.904Z,2.35
2018-11-26T01:37:21.895Z,2.46
2018-11-26T01:38:36.565Z,2.42
2018-11-26T01:40:21.958Z,2.35
2018-11-26T01:41:36.611Z,2.24
2018-11-26T01:42:21.959Z,2.34
2018-11-26T01:43:21.976Z,2.3
2018-11-26T01:44:21.994Z,2.34
2018-11-26T01:45:22.019Z,2.38
2018-11-26T01:46:22.013Z,2.31
2018-11-26T01:47:22.079Z,2.3
2018-11-26T01:48:36.697Z,2.23
2018-11-26T01:51:22.084Z,2.1
2018-11-26T01:52:22.095Z,2.17
2018-11-26T01:53:22.110Z,2.14
2018-11-26T01:54:22.127Z,2.09
2018-11-26T01:55:22.134Z,2.21
2018-11-26T01:56:22.151Z,2.21
2018-11-26T01:57:22.164Z,2.24
2018-11-26T01:58:22.227Z,2.38
2018-11-26T01:59:22.189Z,2.42
2018-11-26T02:00:22.209Z,2.48
2018-11-26T02:01:22.215Z,2.45
2018-11-26T02:02:22.229Z,2.45
2018-11-26T02:03:22.242Z,2.46
2018-11-26T02:04:22.256Z,2.42
2018-11-26T02:05:22.322Z,2.54
2018-11-26T02:06:22.283Z,2.56
2018-11-26T02:07:22.294Z,2.53
2018-11-26T02:08:22.313Z,2.66
2018-11-26T02:09:22.323Z,2.57
2018-11-26T02:10:36.993Z,2.6
2018-11-26T02:12:22.362Z,2.67
2018-11-26T02:13:22.376Z,2.64
2018-11-26T02:14:22.390Z,2.71
2018-11-26T02:15:22.414Z,2.69
2018-11-26T02:16:22.422Z,2.71
2018-11-26T02:17:22.437Z,2.74
2018-11-26T02:18:37.104Z,2.75
2018-11-26T02:19:22.456Z,2.72
2018-11-26T02:20:22.471Z,2.78
2018-11-26T02:21:22.489Z,2.79
2018-11-26T02:22:22.498Z,2.78
2018-11-26T02:24:22.525Z,2.81
2018-11-26T02:25:22.539Z,2.77
2018-11-26T02:26:37.209Z,2.81
2018-11-26T02:27:22.876Z,2.85
2018-11-26T02:29:22.594Z,2.89
2018-11-26T02:30:22.606Z,2.96
2018-11-26T02:31:22.619Z,2.99
2018-11-26T02:32:22.637Z,2.95
2018-11-26T02:33:22.645Z,3
2018-11-26T02:34:37.319Z,2.97
2018-11-26T02:35:37.330Z,2.89
2018-11-26T02:36:22.687Z,2.97
2018-11-26T02:37:22.702Z,2.97
2018-11-26T02:38:22.711Z,3.05
2018-11-26T02:39:22.742Z,3
2018-11-26T02:40:22.742Z,3.02
2018-11-26T02:41:22.751Z,3.18
2018-11-26T02:42:37.428Z,3.14
2018-11-26T02:43:22.779Z,3.15
2018-11-26T02:44:22.795Z,3.13
2018-11-26T02:45:22.807Z,3.05
2018-11-26T02:46:37.483Z,3.03
2018-11-26T02:47:22.835Z,3.05
2018-11-26T02:48:22.847Z,3.08
2018-11-26T02:49:22.863Z,2.99
2018-11-26T02:50:22.874Z,3.1
2018-11-26T02:51:22.888Z,3.11
2018-11-26T02:52:22.913Z,3.08
2018-11-26T02:54:22.929Z,3.03
2018-11-26T02:55:22.950Z,3.05
2018-11-26T02:56:22.965Z,3.03
2018-11-26T02:57:22.975Z,3.08
2018-11-26T02:58:37.639Z,2.96
2018-11-26T02:59:22.994Z,2.99
2018-11-26T03:00:23.011Z,2.82
2018-11-26T03:01:23.035Z,2.85
2018-11-26T03:02:23.038Z,2.9
2018-11-26T03:03:23.056Z,2.9
2018-11-26T03:04:23.061Z,2.87
2018-11-26T03:05:23.072Z,2.84
2018-11-26T03:06:37.746Z,2.77
2018-11-26T03:07:23.107Z,2.81
2018-11-26T03:08:23.174Z,2.92
2018-11-26T03:09:23.128Z,2.99
2018-11-26T03:10:23.143Z,2.96
2018-11-26T03:11:23.160Z,3
2018-11-26T03:12:23.166Z,2.99
2018-11-26T03:13:37.846Z,3.02
2018-11-26T03:14:23.198Z,2.93
2018-11-26T03:15:23.216Z,2.77
2018-11-26T03:16:23.242Z,2.82
2018-11-26T03:17:23.237Z,2.78
2018-11-26T03:18:23.251Z,2.85
2018-11-26T03:19:23.269Z,2.9
2018-11-26T03:20:37.972Z,2.87
2018-11-26T03:21:23.294Z,2.85
2018-11-26T03:22:23.301Z,2.93
2018-11-26T03:23:23.317Z,2.95
2018-11-26T03:24:23.333Z,2.82
2018-11-26T03:25:23.354Z,2.96
2018-11-26T03:26:23.360Z,2.95
2018-11-26T03:27:23.368Z,2.96
2018-11-26T03:28:23.140Z,2.92
2018-11-26T03:29:23.400Z,2.96
2018-11-26T03:30:23.417Z,2.87
2018-11-26T03:32:23.465Z,2.89
2018-11-26T03:33:23.503Z,2.92
2018-11-26T03:34:23.465Z,2.9
2018-11-26T03:36:23.491Z,2.81
2018-11-26T03:37:23.504Z,2.85
2018-11-26T03:38:23.520Z,2.84
2018-11-26T03:39:23.534Z,2.78
2018-11-26T03:40:23.545Z,2.89
2018-11-26T03:41:23.563Z,2.84
2018-11-26T03:42:23.583Z,2.9
2018-11-26T03:43:23.592Z,2.95
2018-11-26T03:44:23.600Z,2.97
2018-11-26T03:45:38.274Z,2.89
2018-11-26T03:46:23.629Z,3.05
2018-11-26T03:47:23.639Z,2.93
2018-11-26T03:48:23.655Z,2.93
2018-11-26T03:49:23.665Z,2.92
2018-11-26T03:50:23.680Z,2.95
2018-11-26T03:51:23.694Z,2.93
2018-11-26T03:52:23.704Z,2.81
2018-11-26T03:53:23.720Z,2.78
2018-11-26T03:54:23.741Z,2.79
2018-11-26T03:55:23.753Z,2.71
2018-11-26T03:56:23.764Z,2.74
2018-11-26T03:57:23.776Z,2.69
2018-11-26T03:58:23.789Z,2.67
2018-11-26T03:59:23.808Z,2.52
2018-11-26T04:00:23.822Z,2.57
2018-11-26T04:01:38.490Z,2.54
2018-11-26T04:02:23.857Z,2.45
2018-11-26T04:03:23.862Z,2.45
2018-11-26T04:04:23.867Z,2.43
2018-11-26T04:05:23.883Z,2.46
2018-11-26T04:06:23.903Z,2.57
2018-11-26T04:07:23.914Z,2.63
2018-11-26T04:08:23.918Z,2.67
2018-11-26T04:09:23.940Z,2.61
2018-11-26T04:10:23.946Z,2.48
2018-11-26T04:11:23.994Z,2.63
2018-11-26T04:12:23.978Z,2.57
2018-11-26T04:13:23.987Z,2.46
2018-11-26T04:14:24.004Z,2.54
2018-11-26T04:15:24.023Z,2.57
2018-11-26T04:17:38.703Z,2.64
2018-11-26T04:18:24.054Z,2.67
2018-11-26T04:19:24.067Z,2.75
2018-11-26T04:20:24.081Z,2.74
2018-11-26T04:22:38.778Z,2.74
2018-11-26T04:23:24.126Z,2.78
2018-11-26T04:24:24.148Z,2.79
2018-11-26T04:25:24.153Z,2.72
2018-11-26T04:26:24.166Z,2.78
2018-11-26T04:27:24.173Z,2.79
2018-11-26T04:28:24.197Z,2.78
2018-11-26T04:30:24.212Z,2.82
2018-11-26T04:32:24.246Z,2.97
2018-11-26T04:33:38.913Z,2.97
2018-11-26T04:34:24.271Z,3
2018-11-26T04:35:24.286Z,2.95
2018-11-26T04:36:24.311Z,3.02
2018-11-26T04:37:24.315Z,3.23
2018-11-26T04:38:24.323Z,3.2
2018-11-26T04:39:24.348Z,3.17
2018-11-26T04:40:39.008Z,3.02
2018-11-26T04:41:24.370Z,3.03
2018-11-26T04:42:39.033Z,3.05
2018-11-26T04:43:24.388Z,3.05
2018-11-26T04:44:39.059Z,3
2018-11-26T04:45:24.418Z,3.13
2018-11-26T04:46:24.440Z,3.15
2018-11-26T04:47:24.460Z,3.05
2018-11-26T04:48:39.113Z,3.11
2018-11-26T04:50:24.491Z,3.15
2018-11-26T04:51:24.497Z,3.11
2018-11-26T04:52:24.513Z,3.17
2018-11-26T04:53:24.532Z,3.06
2018-11-26T04:54:24.539Z,3.15
2018-11-26T04:55:24.551Z,3.18
2018-11-26T04:56:24.776Z,3.17
2018-11-26T04:57:42.258Z,3.2
2018-11-26T04:59:24.602Z,3.14
2018-11-26T05:00:24.623Z,3.11
2018-11-26T05:01:24.631Z,3.15
2018-11-26T05:02:24.651Z,3.06
2018-11-26T05:03:24.661Z,3.21
2018-11-26T05:05:24.742Z,3.11
2018-11-26T05:07:39.376Z,3.13
2018-11-26T05:08:24.731Z,3.15
2018-11-26T05:09:24.739Z,3.21
2018-11-26T05:10:39.415Z,3.03
2018-11-26T05:11:39.426Z,3.18
2018-11-26T05:12:24.781Z,3.1
2018-11-26T05:13:24.791Z,3.18
2018-11-26T05:14:24.807Z,3.15
2018-11-26T05:15:24.821Z,3.11
2018-11-26T05:16:24.833Z,3.11
2018-11-26T05:17:24.861Z,3.13
2018-11-26T05:18:24.870Z,3.13
2018-11-26T05:19:24.872Z,3.08
2018-11-26T05:20:39.545Z,3.15
2018-11-26T05:21:24.902Z,3.21
2018-11-26T05:22:24.911Z,3.18
2018-11-26T05:23:24.927Z,3.18
2018-11-26T05:24:24.941Z,3.17
2018-11-26T05:25:24.962Z,3.18
2018-11-26T05:26:39.627Z,3.18
2018-11-26T05:27:24.983Z,3.23
2018-11-26T05:28:25.000Z,3.23
2018-11-26T05:29:25.004Z,3.18
2018-11-26T05:30:39.677Z,3.21
2018-11-26T05:31:25.032Z,3.23
2018-11-26T05:32:25.048Z,3.26
2018-11-26T05:33:25.062Z,3.23
2018-11-26T05:34:25.080Z,3.17
2018-11-26T05:35:25.090Z,3.15
2018-11-26T05:36:39.759Z,3.17
2018-11-26T05:37:25.111Z,3.21
2018-11-26T05:38:25.134Z,3.2
2018-11-26T05:39:25.142Z,3.23
2018-11-26T05:40:25.153Z,3.11
2018-11-26T05:41:25.168Z,3.18
2018-11-26T05:42:31.236Z,3.15
2018-11-26T05:43:25.197Z,3.21
2018-11-26T05:44:25.213Z,3.18
2018-11-26T05:45:39.880Z,3.21
2018-11-26T05:46:25.234Z,3.15
2018-11-26T05:47:25.248Z,3.17
2018-11-26T05:48:25.263Z,3.1
2018-11-26T05:49:25.374Z,3.15
2018-11-26T05:50:25.301Z,3.18
2018-11-26T05:51:25.302Z,3.18
2018-11-26T05:52:39.971Z,3.15
2018-11-26T05:53:25.327Z,3.08
2018-11-26T05:54:25.342Z,3.18
2018-11-26T05:55:26.128Z,3.06
2018-11-26T05:56:25.369Z,3.17
2018-11-26T05:57:25.392Z,3.13
2018-11-26T05:58:25.396Z,3.13
2018-11-26T05:59:25.409Z,3.08
2018-11-26T06:00:40.080Z,3.18
2018-11-26T06:01:25.433Z,3.23
2018-11-26T06:02:25.451Z,3.18
2018-11-26T06:03:25.463Z,3.15
2018-11-26T06:04:25.478Z,3.18
2018-11-26T06:05:25.494Z,3.21
2018-11-26T06:06:25.517Z,3.14
2018-11-26T06:07:25.521Z,3.06
2018-11-26T06:08:40.189Z,3.15
2018-11-26T06:09:25.545Z,3.2
2018-11-26T06:10:25.563Z,3.21
2018-11-26T06:11:25.571Z,3.14
2018-11-26T06:12:25.578Z,3.18
2018-11-26T06:13:25.601Z,3.2
2018-11-26T06:14:25.605Z,3.33
2018-11-26T06:15:25.622Z,3.35
2018-11-26T06:16:40.295Z,3.33
2018-11-26T06:17:25.651Z,3.29
2018-11-26T06:18:25.662Z,3.29
2018-11-26T06:19:25.682Z,3.23
2018-11-26T06:20:25.691Z,3.24
2018-11-26T06:21:25.727Z,3.24
2018-11-26T06:22:25.716Z,3.24
2018-11-26T06:23:40.387Z,3.31
2018-11-26T06:24:25.748Z,3.18
2018-11-26T06:25:25.761Z,3.2
2018-11-26T06:26:25.772Z,3.18
2018-11-26T06:27:25.784Z,3.26
2018-11-26T06:28:40.460Z,3.15
2018-11-26T06:29:25.809Z,3.32
2018-11-26T06:30:40.484Z,3.21
2018-11-26T06:31:25.842Z,3.18
2018-11-26T06:32:25.851Z,3.21
2018-11-26T06:33:25.863Z,3.31
2018-11-26T06:34:25.876Z,3.24
2018-11-26T06:35:25.894Z,3.28
2018-11-26T06:36:25.907Z,3.26
2018-11-26T06:37:25.918Z,3.35
2018-11-26T06:38:25.930Z,3.17
2018-11-26T06:39:40.615Z,3.23
2018-11-26T06:41:25.972Z,3.33
2018-11-26T06:42:25.986Z,3.29
2018-11-26T06:43:25.996Z,3.26
2018-11-26T06:44:26.116Z,3.23
2018-11-26T06:45:40.686Z,3.23
2018-11-26T06:46:26.042Z,3.2
2018-11-26T06:47:26.057Z,3.33
2018-11-26T06:48:40.722Z,3.28
2018-11-26T06:49:26.081Z,3.31
2018-11-26T06:50:26.097Z,3.31
2018-11-26T06:51:26.104Z,3.33
2018-11-26T06:52:26.122Z,3.35
2018-11-26T06:53:26.133Z,3.32
2018-11-26T06:54:26.145Z,3.29
2018-11-26T06:55:40.817Z,3.42
2018-11-26T06:56:26.172Z,3.33
2018-11-26T06:57:26.182Z,3.36
2018-11-26T06:58:26.205Z,3.32
2018-11-26T06:59:26.212Z,3.35
2018-11-26T07:00:26.228Z,3.42
2018-11-26T07:01:26.242Z,3.48
2018-11-26T07:02:26.256Z,3.6
2018-11-26T07:03:26.266Z,3.57
2018-11-26T07:04:40.938Z,3.54
2018-11-26T07:05:26.301Z,3.51
2018-11-26T07:06:26.306Z,3.6
2018-11-26T07:07:26.320Z,3.48
2018-11-26T07:08:26.349Z,3.51
2018-11-26T07:09:26.345Z,3.57
2018-11-26T07:10:26.358Z,3.57
2018-11-26T07:11:41.047Z,3.54
2018-11-26T07:12:26.391Z,3.52
2018-11-26T07:13:26.398Z,3.5
2018-11-26T07:14:26.419Z,3.5
2018-11-26T07:15:26.430Z,3.43
2018-11-26T07:16:26.482Z,3.52
2018-11-26T07:17:26.454Z,3.48
2018-11-26T07:18:26.464Z,3.48
2018-11-26T07:19:41.140Z,3.51
2018-11-26T07:20:26.497Z,3.52
2018-11-26T07:21:26.511Z,3.62
2018-11-26T07:22:26.522Z,3.57
2018-11-26T07:23:26.540Z,3.5
2018-11-26T07:24:41.226Z,3.47
2018-11-26T07:26:26.579Z,3.51
2018-11-26T07:27:41.253Z,3.42
2018-11-26T07:28:26.602Z,3.5
2018-11-26T07:29:29.103Z,3.33
2018-11-26T07:30:26.634Z,3.42
2018-11-26T07:31:26.646Z,3.39
2018-11-26T07:32:26.663Z,3.42
2018-11-26T07:33:41.334Z,3.48
2018-11-26T07:34:41.343Z,3.45
2018-11-26T07:36:26.714Z,3.43
2018-11-26T07:37:26.724Z,3.43
2018-11-26T07:38:26.740Z,3.47
2018-11-26T07:39:26.756Z,3.52
2018-11-26T07:40:26.779Z,3.47
2018-11-26T07:41:26.789Z,3.52
2018-11-26T07:42:26.803Z,3.52
2018-11-26T07:43:41.467Z,3.42
2018-11-26T07:44:26.821Z,3.51
2018-11-26T07:45:26.837Z,3.55
2018-11-26T07:46:26.853Z,3.47
2018-11-26T07:47:26.860Z,3.52
2018-11-26T07:48:41.536Z,3.65
2018-11-26T07:49:28.187Z,3.68
2018-11-26T07:50:26.905Z,3.55
2018-11-26T07:51:41.571Z,3.58
2018-11-26T07:52:26.929Z,3.47
2018-11-26T07:53:26.936Z,3.51
2018-11-26T07:54:26.952Z,3.54
2018-11-26T07:55:26.970Z,3.5
2018-11-26T07:56:26.981Z,3.54
2018-11-26T07:57:26.996Z,3.55
2018-11-26T07:58:41.672Z,3.58
2018-11-26T07:59:27.024Z,3.57
2018-11-26T08:00:27.052Z,3.65
2018-11-26T08:01:27.049Z,3.66
2018-11-26T08:02:27.088Z,3.78
2018-11-26T08:03:41.789Z,3.73
2018-11-26T08:04:41.749Z,3.72
2018-11-26T08:05:27.105Z,3.7
2018-11-26T08:06:27.114Z,3.68
2018-11-26T08:07:27.131Z,3.69
2018-11-26T08:08:27.141Z,3.65
2018-11-26T08:09:27.157Z,3.6
2018-11-26T08:10:27.173Z,3.6
2018-11-26T08:11:27.192Z,3.66
2018-11-26T08:12:27.197Z,3.61
2018-11-26T08:13:27.215Z,3.72
2018-11-26T08:14:27.231Z,3.69
2018-11-26T08:15:27.439Z,3.68
2018-11-26T08:16:27.257Z,3.61
2018-11-26T08:17:27.269Z,3.57
2018-11-26T08:18:27.036Z,3.66
2018-11-26T08:19:27.300Z,3.6
2018-11-26T08:20:27.310Z,3.73
2018-11-26T08:21:27.324Z,3.62
2018-11-26T08:22:41.993Z,3.7
2018-11-26T08:23:42.006Z,3.69
2018-11-26T08:24:27.359Z,3.75
2018-11-26T08:25:27.377Z,3.6
2018-11-26T08:26:27.391Z,3.61
2018-11-26T08:27:27.411Z,3.66
2018-11-26T08:28:27.417Z,3.69
2018-11-26T08:29:27.534Z,3.79
2018-11-26T08:30:42.103Z,3.73
2018-11-26T08:31:27.459Z,3.72
2018-11-26T08:32:27.735Z,3.79
2018-11-26T08:33:27.673Z,3.78
2018-11-26T08:34:27.497Z,3.8
2018-11-26T08:35:27.514Z,3.83
2018-11-26T08:36:42.184Z,3.83
2018-11-26T08:37:27.537Z,3.83
2018-11-26T08:38:27.558Z,3.88
2018-11-26T08:39:27.567Z,3.76
2018-11-26T08:40:27.591Z,3.88
2018-11-26T08:41:27.595Z,3.83
2018-11-26T08:42:27.607Z,3.9
2018-11-26T08:43:27.619Z,3.91
2018-11-26T08:44:27.696Z,3.91
2018-11-26T08:45:27.647Z,3.87
2018-11-26T08:46:42.324Z,3.97
2018-11-26T08:47:27.684Z,3.93
2018-11-26T08:48:27.702Z,4.02
2018-11-26T08:49:27.710Z,4.02
2018-11-26T08:50:27.722Z,4
2018-11-26T08:51:27.730Z,3.97
2018-11-26T08:52:27.749Z,4.04
2018-11-26T08:53:42.416Z,4.04
2018-11-26T08:54:27.783Z,4.09
2018-11-26T08:55:27.785Z,4.02
2018-11-26T08:56:27.803Z,4.06
2018-11-26T08:57:27.817Z,4.02
2018-11-26T08:58:27.825Z,4.15
2018-11-26T08:59:27.844Z,4.15
2018-11-26T09:00:27.853Z,4.23
2018-11-26T09:01:27.621Z,4.2
2018-11-26T09:02:42.543Z,4.27
2018-11-26T09:03:27.904Z,4.37
2018-11-26T09:04:27.911Z,4.37
2018-11-26T09:05:28.965Z,4.3
2018-11-26T09:06:27.939Z,4.33
2018-11-26T09:07:27.955Z,4.45
2018-11-26T09:08:27.964Z,4.41
2018-11-26T09:09:32.729Z,4.36
2018-11-26T09:10:42.651Z,4.44
2018-11-26T09:11:42.663Z,4.47
2018-11-26T09:12:42.678Z,4.41
2018-11-26T09:13:28.038Z,4.42
2018-11-26T09:14:28.048Z,4.44
2018-11-26T09:15:28.063Z,4.45
2018-11-26T09:16:28.076Z,4.48
2018-11-26T09:18:42.816Z,4.66
2018-11-26T09:20:28.832Z,4.66
2018-11-26T09:21:28.145Z,4.84
2018-11-26T09:22:28.163Z,4.7
2018-11-26T09:23:28.173Z,4.69
2018-11-26T09:24:28.187Z,4.63
2018-11-26T09:25:42.863Z,4.7
2018-11-26T09:26:28.225Z,4.72
2018-11-26T09:27:42.888Z,4.65
2018-11-26T09:28:28.244Z,4.78
2018-11-26T09:29:28.257Z,4.69
2018-11-26T09:32:28.301Z,4.66
2018-11-26T09:33:42.979Z,4.77
2018-11-26T09:34:28.329Z,4.72
2018-11-26T09:35:28.355Z,4.75
2018-11-26T09:36:28.368Z,4.77
2018-11-26T09:37:28.378Z,4.84
2018-11-26T09:38:28.390Z,4.8
2018-11-26T09:39:28.406Z,4.7
2018-11-26T09:40:43.075Z,4.91
2018-11-26T09:41:28.513Z,4.86
2018-11-26T09:42:43.102Z,4.94
2018-11-26T09:43:28.510Z,4.92
2018-11-26T09:44:28.559Z,4.96
2018-11-26T09:45:28.539Z,4.88
2018-11-26T09:46:28.505Z,4.89
2018-11-26T09:47:28.598Z,4.89
2018-11-26T09:48:28.532Z,4.85
2018-11-26T09:49:28.585Z,4.69
2018-11-26T09:50:28.557Z,4.75
2018-11-26T09:51:28.574Z,4.91
2018-11-26T09:52:28.340Z,4.7
2018-11-26T09:53:28.601Z,4.86
2018-11-26T09:54:30.911Z,4.89
2018-11-26T09:55:28.629Z,4.97
2018-11-26T09:56:43.309Z,5.1
2018-11-26T09:57:28.658Z,4.97
2018-11-26T09:58:28.677Z,4.99
2018-11-26T09:59:28.689Z,5.04
2018-11-26T10:00:28.713Z,5.03
2018-11-26T10:01:28.716Z,4.94
2018-11-26T10:02:28.733Z,4.89
2018-11-26T10:03:28.747Z,4.94
2018-11-26T10:04:28.761Z,4.96
2018-11-26T10:05:43.437Z,4.99
2018-11-26T10:08:28.819Z,4.94
2018-11-26T10:10:28.849Z,4.94
2018-11-26T10:11:28.866Z,4.91
2018-11-26T10:12:28.876Z,4.91
2018-11-26T10:13:28.887Z,4.86
2018-11-26T10:14:43.565Z,4.91
2018-11-26T10:15:28.920Z,5.06
2018-11-26T10:16:28.936Z,4.99
2018-11-26T10:17:28.990Z,5.06
2018-11-26T10:18:29.067Z,5.04
2018-11-26T10:19:28.980Z,5.09
2018-11-26T10:20:28.991Z,5.15
2018-11-26T10:21:43.665Z,5.24
2018-11-26T10:22:29.022Z,5.28
2018-11-26T10:23:29.041Z,5.38
2018-11-26T10:24:29.053Z,5.36
2018-11-26T10:25:43.727Z,5.38
2018-11-26T10:26:29.077Z,5.28
2018-11-26T10:27:29.092Z,5.4
2018-11-26T10:28:29.119Z,5.35
2018-11-26T10:29:29.124Z,5.42
2018-11-26T10:30:29.156Z,5.39
2018-11-26T10:31:29.154Z,5.3
2018-11-26T10:32:29.172Z,5.38
2018-11-26T10:33:29.186Z,5.43
2018-11-26T10:34:29.199Z,5.38
2018-11-26T10:35:29.212Z,5.43
2018-11-26T10:36:29.228Z,5.42
2018-11-26T10:37:43.903Z,5.49
2018-11-26T10:38:29.258Z,5.51
2018-11-26T10:39:29.279Z,5.49
2018-11-26T10:40:29.301Z,5.51
2018-11-26T10:41:29.400Z,5.64
2018-11-26T10:42:29.315Z,5.6
2018-11-26T10:43:29.327Z,5.58
2018-11-26T10:44:29.343Z,5.54
2018-11-26T10:45:29.355Z,5.57
2018-11-26T10:46:29.479Z,5.57
2018-11-26T10:47:29.398Z,5.33
2018-11-26T10:48:29.403Z,5.39
2018-11-26T10:49:29.433Z,5.39
2018-11-26T10:50:29.443Z,5.33
2018-11-26T10:51:29.448Z,5.39
2018-11-26T10:52:29.467Z,5.42
2018-11-26T10:53:44.135Z,5.38
2018-11-26T10:54:29.493Z,5.36
2018-11-26T10:55:29.511Z,5.53
2018-11-26T10:56:29.521Z,5.54
2018-11-26T10:57:29.536Z,5.53
2018-11-26T10:58:29.557Z,5.39
2018-11-26T10:59:29.569Z,5.48
2018-11-26T11:00:29.580Z,5.53
2018-11-26T11:01:44.261Z,5.57
2018-11-26T11:02:29.611Z,5.56
2018-11-26T11:03:29.650Z,5.51
2018-11-26T11:04:29.643Z,5.48
2018-11-26T11:05:29.686Z,5.45
2018-11-26T11:06:29.684Z,5.45
2018-11-26T11:08:44.361Z,5.45
2018-11-26T11:09:29.797Z,5.45
2018-11-26T11:10:29.757Z,5.49
2018-11-26T11:11:44.408Z,5.39
2018-11-26T11:12:29.788Z,5.4
2018-11-26T11:13:29.789Z,5.49
2018-11-26T11:14:29.824Z,5.6
2018-11-26T11:15:29.806Z,5.58
2018-11-26T11:16:29.851Z,5.64
2018-11-26T11:17:29.852Z,5.53
2018-11-26T11:18:29.852Z,5.46
2018-11-26T11:19:29.860Z,5.38
2018-11-26T11:20:29.915Z,5.38
2018-11-26T11:21:29.930Z,5.35
2018-11-26T11:22:29.939Z,5.39
2018-11-26T11:23:29.922Z,5.39
2018-11-26T11:24:29.967Z,5.39
2018-11-26T11:25:29.952Z,5.38
2018-11-26T11:27:29.984Z,5.51
2018-11-26T11:28:30.024Z,5.57
2018-11-26T11:29:30.064Z,5.51
2018-11-26T11:30:45.032Z,5.49
2018-11-26T11:31:30.083Z,5.54
2018-11-26T11:32:30.049Z,5.51
2018-11-26T11:33:30.512Z,5.53
2018-11-26T11:34:30.083Z,5.61
2018-11-26T11:35:30.140Z,5.56
2018-11-26T11:36:30.123Z,5.6
2018-11-26T11:37:30.159Z,5.51
2018-11-26T11:38:30.709Z,5.64
2018-11-26T11:39:30.154Z,5.63
2018-11-26T11:40:44.844Z,5.68
2018-11-26T11:41:34.199Z,5.64
2018-11-26T11:42:30.200Z,5.53
2018-11-26T11:43:30.302Z,5.6
2018-11-26T11:45:30.027Z,5.65
2018-11-26T11:46:30.286Z,5.53
2018-11-26T11:47:30.307Z,5.56
2018-11-26T11:48:30.287Z,5.65
2018-11-26T11:49:30.302Z,5.68
2018-11-26T11:50:44.993Z,5.49
2018-11-26T11:51:30.350Z,5.54
2018-11-26T11:52:30.436Z,5.63
2018-11-26T11:53:30.359Z,5.63
2018-11-26T11:54:30.408Z,5.48
2018-11-26T11:55:30.388Z,5.54
2018-11-26T11:56:45.070Z,5.61
2018-11-26T11:57:30.437Z,5.53
2018-11-26T11:58:30.466Z,5.63
2018-11-26T11:59:30.479Z,5.64
2018-11-26T12:00:30.467Z,5.61
2018-11-26T12:01:30.492Z,5.63
2018-11-26T12:02:30.246Z,5.61
2018-11-26T12:03:30.543Z,5.54
2018-11-26T12:04:30.526Z,5.54
2018-11-26T12:05:30.592Z,5.42
2018-11-26T12:06:30.552Z,5.51
2018-11-26T12:07:30.614Z,5.56
2018-11-26T12:08:30.589Z,5.51
2018-11-26T12:09:30.617Z,5.54
2018-11-26T12:10:30.677Z,5.46
2018-11-26T12:11:30.624Z,5.46
2018-11-26T12:12:45.351Z,5.45
2018-11-26T12:13:30.683Z,5.49
2018-11-26T12:14:30.687Z,5.53
2018-11-26T12:15:30.755Z,5.45
2018-11-26T12:16:30.699Z,5.49
2018-11-26T12:17:30.792Z,5.54
2018-11-26T12:18:30.729Z,5.38
2018-11-26T12:20:30.798Z,5.43
2018-11-26T12:21:45.456Z,5.51
2018-11-26T12:22:30.828Z,5.53
2018-11-26T12:23:30.801Z,5.49
2018-11-26T12:24:30.843Z,5.53
2018-11-26T12:25:30.833Z,5.57
2018-11-26T12:26:30.877Z,5.48
2018-11-26T12:27:30.861Z,5.46
2018-11-26T12:28:45.555Z,5.39
2018-11-26T12:29:30.924Z,5.43
2018-11-26T12:30:31.391Z,5.54
2018-11-26T12:31:30.944Z,5.57
2018-11-26T12:32:30.977Z,5.63
2018-11-26T12:33:30.982Z,5.57
2018-11-26T12:35:31.055Z,5.61
2018-11-26T12:36:31.009Z,5.63
2018-11-26T12:38:31.042Z,5.53
2018-11-26T12:39:31.071Z,5.63
2018-11-26T12:40:31.089Z,5.56
2018-11-26T12:41:31.106Z,5.57
2018-11-26T12:42:31.087Z,5.6
2018-11-26T12:43:45.760Z,5.61
2018-11-26T12:44:31.141Z,5.54
2018-11-26T12:45:31.308Z,5.48
2018-11-26T12:46:31.181Z,5.54
2018-11-26T12:47:31.166Z,5.6
2018-11-26T12:48:31.200Z,5.61
2018-11-26T12:49:31.241Z,5.58
2018-11-26T12:50:31.226Z,5.65
2018-11-26T12:51:31.217Z,5.54
2018-11-26T12:53:45.929Z,5.61
2018-11-26T12:54:31.282Z,5.61
2018-11-26T12:55:31.363Z,5.65
2018-11-26T12:56:31.296Z,5.58
2018-11-26T12:57:31.314Z,5.57
2018-11-26T12:58:31.336Z,5.63
2018-11-26T12:59:31.370Z,5.57
2018-11-26T13:00:31.391Z,5.49
2018-11-26T13:01:31.707Z,5.54
2018-11-26T13:02:31.409Z,5.39
2018-11-26T13:03:31.416Z,5.45
2018-11-26T13:04:31.410Z,5.53
2018-11-26T13:05:31.471Z,5.51
2018-11-26T13:06:31.444Z,5.6
2018-11-26T13:07:31.459Z,5.48
2018-11-26T13:08:31.486Z,5.42
2018-11-26T13:09:46.168Z,5.35
2018-11-26T13:10:31.556Z,5.4
2018-11-26T13:11:31.516Z,5.4
2018-11-26T13:12:46.209Z,5.43
2018-11-26T13:13:31.544Z,5.42
2018-11-26T13:14:31.574Z,5.43
2018-11-26T13:15:46.252Z,5.49
2018-11-26T13:16:31.603Z,5.42
2018-11-26T13:17:31.639Z,5.48
2018-11-26T13:18:31.625Z,5.4
2018-11-26T13:19:31.691Z,5.39
2018-11-26T13:20:31.657Z,5.24
2018-11-26T13:21:31.688Z,5.35
2018-11-26T13:22:31.686Z,5.31
2018-11-26T13:23:31.725Z,5.27
2018-11-26T13:24:31.737Z,5.27
2018-11-26T13:25:31.746Z,5.2
2018-11-26T13:26:31.746Z,5.22
2018-11-26T13:27:31.754Z,5.27
2018-11-26T13:28:31.807Z,5.12
2018-11-26T13:29:31.800Z,5.3
2018-11-26T13:30:31.802Z,5.2
2018-11-26T13:31:46.495Z,5.18
2018-11-26T13:32:31.830Z,5.21
2018-11-26T13:33:31.876Z,5.2
2018-11-26T13:34:31.997Z,5.17
2018-11-26T13:35:46.558Z,5.02
2018-11-26T13:36:31.900Z,5.06
2018-11-26T13:37:31.916Z,5.17
2018-11-26T13:38:31.940Z,5.12
2018-11-26T13:40:31.974Z,5.12
2018-11-26T13:41:31.958Z,5.15
2018-11-26T13:42:32.014Z,5.12
2018-11-26T13:43:31.987Z,5.06
2018-11-26T13:44:32.023Z,5.02
2018-11-26T13:45:32.022Z,5.12
2018-11-26T13:46:32.063Z,4.94
2018-11-26T13:47:46.726Z,5.07
2018-11-26T13:48:32.063Z,5.12
2018-11-26T13:49:32.089Z,5.02
2018-11-26T13:50:32.097Z,5.12
2018-11-26T13:51:32.189Z,5.04
2018-11-26T13:52:32.128Z,5.02
2018-11-26T13:53:32.171Z,5
2018-11-26T13:54:32.201Z,5.06
2018-11-26T13:55:32.203Z,5.1
2018-11-26T13:56:32.183Z,5.15
2018-11-26T13:57:46.869Z,5.15
2018-11-26T13:58:32.224Z,5.21
2018-11-26T13:59:32.225Z,5.2
2018-11-26T14:00:32.250Z,5.13
2018-11-26T14:01:32.285Z,5.2
2018-11-26T14:02:32.287Z,5.15
2018-11-26T14:03:46.960Z,5.21
2018-11-26T14:04:32.297Z,5.21